sensor_id;sensor_type;location;lat;lon;timestamp;P1;durP1;ratioP1;P2;durP2;ratioP2
23531;SDS011;11943;52.270;20.978;2023-08-06T00:00:25;43.60;;;20.25;;
23531;SDS011;11943;52.270;20.978;2023-08-06T00:02:50;39.83;;;20.63;;
23531;SDS011;11943;52.270;20.978;2023-08-06T00:05:16;37.38;;;19.73;;
23531;SDS011;11943;52.270;20.978;2023-08-06T00:07:43;49.00;;;20.33;;
23531;SDS011;11943;52.270;20.978;2023-08-06T00:10:10;41.15;;;20.85;;
23531;SDS011;11943;52.270;20.978;2023-08-06T00:12:36;41.22;;;19.70;;
23531;SDS011;11943;52.270;20.978;2023-08-06T00:15:01;51.17;;;20.60;;
23531;SDS011;11943;52.270;20.978;2023-08-06T00:17:27;43.40;;;20.02;;
23531;SDS011;11943;52.270;20.978;2023-08-06T00:19:53;38.60;;;20.27;;
23531;SDS011;11943;52.270;20.978;2023-08-06T00:22:18;38.42;;;20.20;;
23531;SDS011;11943;52.270;20.978;2023-08-06T00:24:44;43.08;;;20.83;;
23531;SDS011;11943;52.270;20.978;2023-08-06T00:27:09;35.63;;;19.88;;
23531;SDS011;11943;52.270;20.978;2023-08-06T00:29:35;41.80;;;21.30;;
23531;SDS011;11943;52.270;20.978;2023-08-06T00:32:01;48.38;;;23.48;;
23531;SDS011;11943;52.270;20.978;2023-08-06T00:34:27;44.60;;;24.00;;
23531;SDS011;11943;52.270;20.978;2023-08-06T00:36:52;44.13;;;23.52;;
23531;SDS011;11943;52.270;20.978;2023-08-06T00:39:19;37.28;;;19.90;;
23531;SDS011;11943;52.270;20.978;2023-08-06T00:41:44;40.22;;;21.90;;
23531;SDS011;11943;52.270;20.978;2023-08-06T00:44:10;33.67;;;20.35;;
23531;SDS011;11943;52.270;20.978;2023-08-06T00:46:36;36.03;;;21.75;;
23531;SDS011;11943;52.270;20.978;2023-08-06T00:49:02;36.00;;;22.15;;
23531;SDS011;11943;52.270;20.978;2023-08-06T00:51:27;39.67;;;21.92;;
23531;SDS011;11943;52.270;20.978;2023-08-06T00:53:53;34.22;;;22.65;;
23531;SDS011;11943;52.270;20.978;2023-08-06T00:56:19;33.05;;;21.00;;
23531;SDS011;11943;52.270;20.978;2023-08-06T00:58:45;34.95;;;21.70;;
23531;SDS011;11943;52.270;20.978;2023-08-06T01:01:12;27.92;;;20.20;;
23531;SDS011;11943;52.270;20.978;2023-08-06T01:03:37;26.90;;;19.95;;
23531;SDS011;11943;52.270;20.978;2023-08-06T01:06:03;27.08;;;19.70;;
23531;SDS011;11943;52.270;20.978;2023-08-06T01:16:05;31.42;;;20.95;;
23531;SDS011;11943;52.270;20.978;2023-08-06T01:18:32;25.88;;;20.25;;
23531;SDS011;11943;52.270;20.978;2023-08-06T01:20:58;28.35;;;19.80;;
23531;SDS011;11943;52.270;20.978;2023-08-06T01:23:23;24.13;;;18.10;;
23531;SDS011;11943;52.270;20.978;2023-08-06T01:28:33;27.75;;;19.35;;
23531;SDS011;11943;52.270;20.978;2023-08-06T01:31:01;30.35;;;19.80;;
23531;SDS011;11943;52.270;20.978;2023-08-06T01:33:30;26.80;;;19.95;;
23531;SDS011;11943;52.270;20.978;2023-08-06T01:35:57;27.48;;;19.50;;
23531;SDS011;11943;52.270;20.978;2023-08-06T01:38:23;25.08;;;18.55;;
23531;SDS011;11943;52.270;20.978;2023-08-06T01:40:50;24.38;;;17.55;;
23531;SDS011;11943;52.270;20.978;2023-08-06T01:43:16;26.63;;;17.08;;
23531;SDS011;11943;52.270;20.978;2023-08-06T01:45:41;23.05;;;17.33;;
23531;SDS011;11943;52.270;20.978;2023-08-06T01:48:07;23.52;;;17.35;;
23531;SDS011;11943;52.270;20.978;2023-08-06T01:50:32;31.52;;;17.95;;
23531;SDS011;11943;52.270;20.978;2023-08-06T01:52:58;27.02;;;17.70;;
23531;SDS011;11943;52.270;20.978;2023-08-06T01:55:24;20.63;;;15.82;;
23531;SDS011;11943;52.270;20.978;2023-08-06T01:57:49;22.95;;;16.05;;
23531;SDS011;11943;52.270;20.978;2023-08-06T02:00:15;22.45;;;16.67;;
23531;SDS011;11943;52.270;20.978;2023-08-06T02:02:40;22.20;;;16.80;;
23531;SDS011;11943;52.270;20.978;2023-08-06T02:05:06;20.95;;;16.50;;
23531;SDS011;11943;52.270;20.978;2023-08-06T02:07:32;24.42;;;16.30;;
23531;SDS011;11943;52.270;20.978;2023-08-06T02:09:57;24.23;;;16.40;;
23531;SDS011;11943;52.270;20.978;2023-08-06T02:12:23;19.77;;;15.75;;
23531;SDS011;11943;52.270;20.978;2023-08-06T02:14:49;23.85;;;16.88;;
23531;SDS011;11943;52.270;20.978;2023-08-06T02:17:14;24.67;;;16.35;;
23531;SDS011;11943;52.270;20.978;2023-08-06T02:19:40;19.67;;;15.07;;
23531;SDS011;11943;52.270;20.978;2023-08-06T02:22:08;20.63;;;14.65;;
23531;SDS011;11943;52.270;20.978;2023-08-06T02:24:33;21.88;;;15.55;;
23531;SDS011;11943;52.270;20.978;2023-08-06T02:26:59;18.50;;;14.98;;
23531;SDS011;11943;52.270;20.978;2023-08-06T02:29:25;21.55;;;15.02;;
23531;SDS011;11943;52.270;20.978;2023-08-06T02:31:50;19.17;;;13.98;;
23531;SDS011;11943;52.270;20.978;2023-08-06T02:34:16;24.35;;;15.40;;
23531;SDS011;11943;52.270;20.978;2023-08-06T02:36:42;27.00;;;15.50;;
23531;SDS011;11943;52.270;20.978;2023-08-06T02:39:07;20.20;;;14.07;;
23531;SDS011;11943;52.270;20.978;2023-08-06T02:41:33;18.80;;;14.75;;
23531;SDS011;11943;52.270;20.978;2023-08-06T02:43:58;18.60;;;14.65;;
23531;SDS011;11943;52.270;20.978;2023-08-06T02:46:24;19.25;;;14.25;;
23531;SDS011;11943;52.270;20.978;2023-08-06T02:48:50;19.98;;;14.27;;
23531;SDS011;11943;52.270;20.978;2023-08-06T02:51:15;22.98;;;15.15;;
23531;SDS011;11943;52.270;20.978;2023-08-06T02:53:41;24.98;;;14.85;;
23531;SDS011;11943;52.270;20.978;2023-08-06T02:56:06;23.10;;;14.43;;
23531;SDS011;11943;52.270;20.978;2023-08-06T02:58:32;23.45;;;15.10;;
23531;SDS011;11943;52.270;20.978;2023-08-06T03:00:58;20.92;;;14.68;;
23531;SDS011;11943;52.270;20.978;2023-08-06T03:03:32;20.00;;;15.32;;
23531;SDS011;11943;52.270;20.978;2023-08-06T03:05:58;18.95;;;14.38;;
23531;SDS011;11943;52.270;20.978;2023-08-06T03:08:24;22.85;;;14.63;;
23531;SDS011;11943;52.270;20.978;2023-08-06T03:10:50;23.27;;;15.52;;
23531;SDS011;11943;52.270;20.978;2023-08-06T03:13:16;21.00;;;15.27;;
23531;SDS011;11943;52.270;20.978;2023-08-06T03:15:42;26.25;;;15.40;;
23531;SDS011;11943;52.270;20.978;2023-08-06T03:18:08;20.17;;;15.38;;
23531;SDS011;11943;52.270;20.978;2023-08-06T03:20:34;24.70;;;16.02;;
23531;SDS011;11943;52.270;20.978;2023-08-06T03:22:59;21.75;;;15.80;;
23531;SDS011;11943;52.270;20.978;2023-08-06T03:25:25;23.52;;;16.38;;
23531;SDS011;11943;52.270;20.978;2023-08-06T03:27:51;21.65;;;16.13;;
23531;SDS011;11943;52.270;20.978;2023-08-06T03:30:16;23.75;;;17.15;;
23531;SDS011;11943;52.270;20.978;2023-08-06T03:32:42;27.42;;;17.30;;
23531;SDS011;11943;52.270;20.978;2023-08-06T03:35:08;24.70;;;17.90;;
23531;SDS011;11943;52.270;20.978;2023-08-06T03:37:33;29.83;;;18.30;;
23531;SDS011;11943;52.270;20.978;2023-08-06T03:39:59;29.38;;;18.10;;
23531;SDS011;11943;52.270;20.978;2023-08-06T03:42:24;28.23;;;18.15;;
23531;SDS011;11943;52.270;20.978;2023-08-06T03:44:50;25.65;;;17.05;;
23531;SDS011;11943;52.270;20.978;2023-08-06T03:47:15;28.48;;;18.48;;
23531;SDS011;11943;52.270;20.978;2023-08-06T03:49:41;27.63;;;19.85;;
23531;SDS011;11943;52.270;20.978;2023-08-06T03:52:08;28.87;;;19.23;;
23531;SDS011;11943;52.270;20.978;2023-08-06T03:54:33;32.83;;;18.40;;
23531;SDS011;11943;52.270;20.978;2023-08-06T03:56:59;33.33;;;20.13;;
23531;SDS011;11943;52.270;20.978;2023-08-06T03:59:25;32.80;;;20.88;;
23531;SDS011;11943;52.270;20.978;2023-08-06T04:01:51;31.98;;;20.88;;
23531;SDS011;11943;52.270;20.978;2023-08-06T04:04:16;30.17;;;20.42;;
23531;SDS011;11943;52.270;20.978;2023-08-06T04:06:42;32.67;;;20.33;;
23531;SDS011;11943;52.270;20.978;2023-08-06T04:09:07;33.92;;;21.60;;
23531;SDS011;11943;52.270;20.978;2023-08-06T04:11:33;29.83;;;22.70;;
23531;SDS011;11943;52.270;20.978;2023-08-06T04:13:59;31.45;;;21.13;;
23531;SDS011;11943;52.270;20.978;2023-08-06T04:16:24;33.17;;;22.60;;
23531;SDS011;11943;52.270;20.978;2023-08-06T04:18:51;34.78;;;22.27;;
23531;SDS011;11943;52.270;20.978;2023-08-06T04:21:18;32.55;;;21.90;;
23531;SDS011;11943;52.270;20.978;2023-08-06T04:23:44;30.50;;;23.05;;
23531;SDS011;11943;52.270;20.978;2023-08-06T04:26:09;36.13;;;22.83;;
23531;SDS011;11943;52.270;20.978;2023-08-06T04:28:35;32.42;;;24.35;;
23531;SDS011;11943;52.270;20.978;2023-08-06T04:31:01;31.60;;;22.75;;
23531;SDS011;11943;52.270;20.978;2023-08-06T04:33:26;31.40;;;22.67;;
23531;SDS011;11943;52.270;20.978;2023-08-06T04:35:55;33.53;;;23.70;;
23531;SDS011;11943;52.270;20.978;2023-08-06T04:38:20;29.00;;;23.10;;
23531;SDS011;11943;52.270;20.978;2023-08-06T04:40:48;31.05;;;22.85;;
23531;SDS011;11943;52.270;20.978;2023-08-06T04:43:13;32.25;;;23.38;;
23531;SDS011;11943;52.270;20.978;2023-08-06T04:45:45;29.67;;;22.85;;
23531;SDS011;11943;52.270;20.978;2023-08-06T04:48:14;31.17;;;22.17;;
23531;SDS011;11943;52.270;20.978;2023-08-06T04:50:46;29.23;;;21.95;;
23531;SDS011;11943;52.270;20.978;2023-08-06T04:53:12;28.45;;;22.58;;
23531;SDS011;11943;52.270;20.978;2023-08-06T04:55:38;32.90;;;22.00;;
23531;SDS011;11943;52.270;20.978;2023-08-06T04:58:04;26.00;;;20.98;;
23531;SDS011;11943;52.270;20.978;2023-08-06T05:00:30;27.83;;;21.23;;
23531;SDS011;11943;52.270;20.978;2023-08-06T05:02:56;27.25;;;20.92;;
23531;SDS011;11943;52.270;20.978;2023-08-06T05:05:21;26.60;;;20.58;;
23531;SDS011;11943;52.270;20.978;2023-08-06T05:07:47;26.13;;;21.23;;
23531;SDS011;11943;52.270;20.978;2023-08-06T05:10:14;27.27;;;18.85;;
23531;SDS011;11943;52.270;20.978;2023-08-06T05:12:40;22.63;;;19.10;;
23531;SDS011;11943;52.270;20.978;2023-08-06T05:15:06;22.77;;;17.67;;
23531;SDS011;11943;52.270;20.978;2023-08-06T05:17:32;21.10;;;18.33;;
23531;SDS011;11943;52.270;20.978;2023-08-06T05:19:58;23.45;;;17.27;;
23531;SDS011;11943;52.270;20.978;2023-08-06T05:22:24;20.67;;;17.00;;
23531;SDS011;11943;52.270;20.978;2023-08-06T05:24:50;19.98;;;17.10;;
23531;SDS011;11943;52.270;20.978;2023-08-06T05:27:15;21.08;;;16.30;;
23531;SDS011;11943;52.270;20.978;2023-08-06T05:29:43;20.50;;;15.35;;
23531;SDS011;11943;52.270;20.978;2023-08-06T05:32:09;20.05;;;15.10;;
23531;SDS011;11943;52.270;20.978;2023-08-06T05:34:35;19.27;;;13.98;;
23531;SDS011;11943;52.270;20.978;2023-08-06T05:37:01;18.38;;;14.05;;
23531;SDS011;11943;52.270;20.978;2023-08-06T05:39:27;23.35;;;13.95;;
23531;SDS011;11943;52.270;20.978;2023-08-06T05:41:53;18.00;;;12.68;;
23531;SDS011;11943;52.270;20.978;2023-08-06T05:44:18;18.05;;;12.98;;
23531;SDS011;11943;52.270;20.978;2023-08-06T05:46:44;14.00;;;12.55;;
23531;SDS011;11943;52.270;20.978;2023-08-06T05:49:10;13.45;;;11.75;;
23531;SDS011;11943;52.270;20.978;2023-08-06T05:51:37;16.05;;;11.70;;
23531;SDS011;11943;52.270;20.978;2023-08-06T05:54:03;15.20;;;11.15;;
23531;SDS011;11943;52.270;20.978;2023-08-06T05:56:28;13.52;;;10.35;;
23531;SDS011;11943;52.270;20.978;2023-08-06T05:58:54;10.88;;;9.68;;
23531;SDS011;11943;52.270;20.978;2023-08-06T06:01:20;16.27;;;10.27;;
23531;SDS011;11943;52.270;20.978;2023-08-06T06:03:45;13.18;;;9.63;;
23531;SDS011;11943;52.270;20.978;2023-08-06T06:06:11;10.63;;;8.95;;
23531;SDS011;11943;52.270;20.978;2023-08-06T06:08:36;13.30;;;8.27;;
23531;SDS011;11943;52.270;20.978;2023-08-06T06:11:02;11.77;;;8.45;;
23531;SDS011;11943;52.270;20.978;2023-08-06T06:13:28;9.75;;;8.43;;
23531;SDS011;11943;52.270;20.978;2023-08-06T06:15:56;8.68;;;7.70;;
23531;SDS011;11943;52.270;20.978;2023-08-06T06:18:22;11.85;;;7.95;;
23531;SDS011;11943;52.270;20.978;2023-08-06T06:20:48;12.93;;;8.77;;
23531;SDS011;11943;52.270;20.978;2023-08-06T06:23:13;9.73;;;8.80;;
23531;SDS011;11943;52.270;20.978;2023-08-06T06:25:57;13.63;;;9.27;;
23531;SDS011;11943;52.270;20.978;2023-08-06T06:28:23;11.95;;;8.90;;
23531;SDS011;11943;52.270;20.978;2023-08-06T06:30:48;9.93;;;8.93;;
23531;SDS011;11943;52.270;20.978;2023-08-06T06:33:16;14.43;;;9.05;;
23531;SDS011;11943;52.270;20.978;2023-08-06T06:35:42;11.35;;;8.75;;
23531;SDS011;11943;52.270;20.978;2023-08-06T06:38:07;9.90;;;8.95;;
23531;SDS011;11943;52.270;20.978;2023-08-06T06:40:33;12.52;;;8.95;;
23531;SDS011;11943;52.270;20.978;2023-08-06T06:42:59;12.32;;;8.98;;
23531;SDS011;11943;52.270;20.978;2023-08-06T06:45:24;11.50;;;8.45;;
23531;SDS011;11943;52.270;20.978;2023-08-06T06:47:50;12.38;;;8.57;;
23531;SDS011;11943;52.270;20.978;2023-08-06T06:50:15;12.68;;;8.52;;
23531;SDS011;11943;52.270;20.978;2023-08-06T06:52:41;15.70;;;8.88;;
23531;SDS011;11943;52.270;20.978;2023-08-06T06:55:07;12.63;;;8.45;;
23531;SDS011;11943;52.270;20.978;2023-08-06T06:57:33;13.88;;;8.85;;
23531;SDS011;11943;52.270;20.978;2023-08-06T06:59:58;9.43;;;8.30;;
23531;SDS011;11943;52.270;20.978;2023-08-06T07:02:24;9.40;;;8.10;;
23531;SDS011;11943;52.270;20.978;2023-08-06T07:04:50;11.30;;;8.27;;
23531;SDS011;11943;52.270;20.978;2023-08-06T07:07:15;16.05;;;8.98;;
23531;SDS011;11943;52.270;20.978;2023-08-06T07:09:41;12.00;;;8.38;;
23531;SDS011;11943;52.270;20.978;2023-08-06T07:12:07;16.80;;;8.25;;
23531;SDS011;11943;52.270;20.978;2023-08-06T07:14:33;11.57;;;7.70;;
23531;SDS011;11943;52.270;20.978;2023-08-06T07:16:58;15.02;;;8.27;;
23531;SDS011;11943;52.270;20.978;2023-08-06T07:19:24;14.52;;;8.38;;
23531;SDS011;11943;52.270;20.978;2023-08-06T07:21:49;14.70;;;8.63;;
23531;SDS011;11943;52.270;20.978;2023-08-06T07:24:15;10.65;;;8.45;;
23531;SDS011;11943;52.270;20.978;2023-08-06T07:26:41;12.85;;;8.40;;
23531;SDS011;11943;52.270;20.978;2023-08-06T07:29:07;14.00;;;8.60;;
23531;SDS011;11943;52.270;20.978;2023-08-06T07:31:32;9.63;;;8.38;;
23531;SDS011;11943;52.270;20.978;2023-08-06T07:33:58;16.17;;;8.27;;
23531;SDS011;11943;52.270;20.978;2023-08-06T07:36:24;17.35;;;8.90;;
23531;SDS011;11943;52.270;20.978;2023-08-06T07:38:49;18.95;;;8.27;;
23531;SDS011;11943;52.270;20.978;2023-08-06T07:41:20;11.20;;;8.30;;
23531;SDS011;11943;52.270;20.978;2023-08-06T07:43:47;13.37;;;7.80;;
23531;SDS011;11943;52.270;20.978;2023-08-06T07:46:12;15.23;;;8.73;;
23531;SDS011;11943;52.270;20.978;2023-08-06T07:48:38;10.13;;;7.80;;
23531;SDS011;11943;52.270;20.978;2023-08-06T07:51:04;10.60;;;8.43;;
23531;SDS011;11943;52.270;20.978;2023-08-06T07:53:30;13.05;;;7.30;;
23531;SDS011;11943;52.270;20.978;2023-08-06T07:55:56;11.77;;;8.63;;
23531;SDS011;11943;52.270;20.978;2023-08-06T07:58:23;13.20;;;8.48;;
23531;SDS011;11943;52.270;20.978;2023-08-06T08:03:15;13.25;;;7.53;;
23531;SDS011;11943;52.270;20.978;2023-08-06T08:05:41;10.50;;;8.02;;
23531;SDS011;11943;52.270;20.978;2023-08-06T08:08:08;12.68;;;8.18;;
23531;SDS011;11943;52.270;20.978;2023-08-06T08:10:34;12.48;;;8.05;;
23531;SDS011;11943;52.270;20.978;2023-08-06T08:13:03;11.80;;;8.13;;
23531;SDS011;11943;52.270;20.978;2023-08-06T08:15:29;12.05;;;8.77;;
23531;SDS011;11943;52.270;20.978;2023-08-06T08:17:55;15.52;;;7.65;;
23531;SDS011;11943;52.270;20.978;2023-08-06T08:20:21;14.27;;;7.93;;
23531;SDS011;11943;52.270;20.978;2023-08-06T08:22:47;16.65;;;8.40;;
23531;SDS011;11943;52.270;20.978;2023-08-06T08:25:13;11.00;;;7.95;;
23531;SDS011;11943;52.270;20.978;2023-08-06T08:27:39;13.05;;;7.55;;
23531;SDS011;11943;52.270;20.978;2023-08-06T08:30:04;8.65;;;7.32;;
23531;SDS011;11943;52.270;20.978;2023-08-06T08:32:31;14.45;;;8.05;;
23531;SDS011;11943;52.270;20.978;2023-08-06T08:34:56;10.63;;;7.70;;
23531;SDS011;11943;52.270;20.978;2023-08-06T08:37:22;15.23;;;7.88;;
23531;SDS011;11943;52.270;20.978;2023-08-06T08:39:49;12.93;;;7.87;;
23531;SDS011;11943;52.270;20.978;2023-08-06T08:42:15;17.58;;;7.93;;
23531;SDS011;11943;52.270;20.978;2023-08-06T08:44:42;10.23;;;7.65;;
23531;SDS011;11943;52.270;20.978;2023-08-06T08:47:08;17.75;;;7.97;;
23531;SDS011;11943;52.270;20.978;2023-08-06T08:49:35;13.02;;;7.50;;
23531;SDS011;11943;52.270;20.978;2023-08-06T08:52:02;9.07;;;6.65;;
23531;SDS011;11943;52.270;20.978;2023-08-06T08:54:32;16.05;;;7.63;;
23531;SDS011;11943;52.270;20.978;2023-08-06T08:56:59;14.07;;;7.28;;
23531;SDS011;11943;52.270;20.978;2023-08-06T08:59:25;20.30;;;7.15;;
23531;SDS011;11943;52.270;20.978;2023-08-06T09:01:51;9.68;;;7.13;;
23531;SDS011;11943;52.270;20.978;2023-08-06T09:04:18;14.27;;;6.93;;
23531;SDS011;11943;52.270;20.978;2023-08-06T09:06:50;18.15;;;7.88;;
23531;SDS011;11943;52.270;20.978;2023-08-06T09:09:17;10.77;;;7.43;;
23531;SDS011;11943;52.270;20.978;2023-08-06T09:12:11;11.90;;;6.93;;
23531;SDS011;11943;52.270;20.978;2023-08-06T09:14:39;10.73;;;6.55;;
23531;SDS011;11943;52.270;20.978;2023-08-06T09:17:05;12.68;;;6.80;;
23531;SDS011;11943;52.270;20.978;2023-08-06T09:19:31;9.35;;;6.25;;
23531;SDS011;11943;52.270;20.978;2023-08-06T09:21:56;10.45;;;6.70;;
23531;SDS011;11943;52.270;20.978;2023-08-06T09:24:22;23.70;;;6.97;;
23531;SDS011;11943;52.270;20.978;2023-08-06T09:26:48;10.60;;;6.40;;
23531;SDS011;11943;52.270;20.978;2023-08-06T09:29:13;9.07;;;6.57;;
23531;SDS011;11943;52.270;20.978;2023-08-06T09:36:41;9.43;;;6.75;;
23531;SDS011;11943;52.270;20.978;2023-08-06T09:39:14;10.07;;;6.20;;
23531;SDS011;11943;52.270;20.978;2023-08-06T09:41:43;14.38;;;6.60;;
23531;SDS011;11943;52.270;20.978;2023-08-06T09:44:16;7.80;;;6.28;;
23531;SDS011;11943;52.270;20.978;2023-08-06T09:46:50;15.77;;;6.50;;
23531;SDS011;11943;52.270;20.978;2023-08-06T09:49:17;11.68;;;6.25;;
23531;SDS011;11943;52.270;20.978;2023-08-06T09:51:44;11.38;;;6.20;;
23531;SDS011;11943;52.270;20.978;2023-08-06T09:56:37;10.17;;;6.10;;
23531;SDS011;11943;52.270;20.978;2023-08-06T09:59:06;13.27;;;5.90;;
23531;SDS011;11943;52.270;20.978;2023-08-06T10:01:33;10.80;;;6.22;;
23531;SDS011;11943;52.270;20.978;2023-08-06T10:04:01;13.32;;;5.78;;
23531;SDS011;11943;52.270;20.978;2023-08-06T10:06:29;12.25;;;5.88;;
23531;SDS011;11943;52.270;20.978;2023-08-06T10:08:57;7.85;;;5.57;;
23531;SDS011;11943;52.270;20.978;2023-08-06T10:11:24;8.57;;;5.37;;
23531;SDS011;11943;52.270;20.978;2023-08-06T10:13:53;9.85;;;6.35;;
23531;SDS011;11943;52.270;20.978;2023-08-06T10:16:23;13.70;;;5.82;;
23531;SDS011;11943;52.270;20.978;2023-08-06T10:18:50;7.72;;;5.72;;
23531;SDS011;11943;52.270;20.978;2023-08-06T10:21:16;10.47;;;5.47;;
23531;SDS011;11943;52.270;20.978;2023-08-06T10:23:42;12.25;;;6.03;;
23531;SDS011;11943;52.270;20.978;2023-08-06T10:26:08;8.27;;;5.60;;
23531;SDS011;11943;52.270;20.978;2023-08-06T10:28:37;8.30;;;5.45;;
23531;SDS011;11943;52.270;20.978;2023-08-06T10:31:04;8.20;;;5.55;;
23531;SDS011;11943;52.270;20.978;2023-08-06T10:33:43;7.80;;;4.88;;
23531;SDS011;11943;52.270;20.978;2023-08-06T10:36:13;20.13;;;5.53;;
23531;SDS011;11943;52.270;20.978;2023-08-06T10:38:49;10.07;;;5.07;;
23531;SDS011;11943;52.270;20.978;2023-08-06T10:41:21;6.10;;;5.32;;
23531;SDS011;11943;52.270;20.978;2023-08-06T10:44:06;9.57;;;5.30;;
23531;SDS011;11943;52.270;20.978;2023-08-06T10:46:33;15.10;;;5.25;;
23531;SDS011;11943;52.270;20.978;2023-08-06T10:48:59;10.55;;;5.63;;
23531;SDS011;11943;52.270;20.978;2023-08-06T10:51:24;14.65;;;5.30;;
23531;SDS011;11943;52.270;20.978;2023-08-06T10:53:50;10.38;;;5.13;;
23531;SDS011;11943;52.270;20.978;2023-08-06T10:56:20;7.95;;;5.18;;
23531;SDS011;11943;52.270;20.978;2023-08-06T10:58:47;7.10;;;5.18;;
23531;SDS011;11943;52.270;20.978;2023-08-06T11:01:14;6.25;;;4.68;;
23531;SDS011;11943;52.270;20.978;2023-08-06T11:03:41;7.23;;;4.93;;
23531;SDS011;11943;52.270;20.978;2023-08-06T11:06:08;10.85;;;5.00;;
23531;SDS011;11943;52.270;20.978;2023-08-06T11:08:35;6.32;;;4.85;;
23531;SDS011;11943;52.270;20.978;2023-08-06T11:11:11;14.75;;;5.35;;
23531;SDS011;11943;52.270;20.978;2023-08-06T11:13:41;6.22;;;4.82;;
23531;SDS011;11943;52.270;20.978;2023-08-06T11:16:08;8.25;;;4.90;;
23531;SDS011;11943;52.270;20.978;2023-08-06T11:18:35;8.60;;;4.85;;
23531;SDS011;11943;52.270;20.978;2023-08-06T11:21:01;7.47;;;4.63;;
23531;SDS011;11943;52.270;20.978;2023-08-06T11:23:28;5.38;;;4.88;;
23531;SDS011;11943;52.270;20.978;2023-08-06T11:25:54;6.95;;;4.50;;
23531;SDS011;11943;52.270;20.978;2023-08-06T11:28:23;6.18;;;5.03;;
23531;SDS011;11943;52.270;20.978;2023-08-06T11:30:49;5.70;;;5.10;;
23531;SDS011;11943;52.270;20.978;2023-08-06T11:33:22;5.60;;;4.82;;
23531;SDS011;11943;52.270;20.978;2023-08-06T11:35:50;7.28;;;4.93;;
23531;SDS011;11943;52.270;20.978;2023-08-06T11:38:16;9.65;;;5.18;;
23531;SDS011;11943;52.270;20.978;2023-08-06T11:40:44;11.48;;;5.38;;
23531;SDS011;11943;52.270;20.978;2023-08-06T11:43:10;7.68;;;5.03;;
23531;SDS011;11943;52.270;20.978;2023-08-06T11:45:37;8.05;;;5.07;;
23531;SDS011;11943;52.270;20.978;2023-08-06T11:48:02;8.02;;;4.80;;
23531;SDS011;11943;52.270;20.978;2023-08-06T11:50:29;7.40;;;4.85;;
23531;SDS011;11943;52.270;20.978;2023-08-06T11:52:59;9.82;;;4.88;;
23531;SDS011;11943;52.270;20.978;2023-08-06T11:55:26;8.43;;;4.85;;
23531;SDS011;11943;52.270;20.978;2023-08-06T11:57:53;9.57;;;4.72;;
23531;SDS011;11943;52.270;20.978;2023-08-06T12:00:19;6.03;;;4.70;;
23531;SDS011;11943;52.270;20.978;2023-08-06T12:02:47;7.88;;;4.50;;
23531;SDS011;11943;52.270;20.978;2023-08-06T12:05:16;7.97;;;4.43;;
23531;SDS011;11943;52.270;20.978;2023-08-06T12:10:27;5.93;;;4.25;;
23531;SDS011;11943;52.270;20.978;2023-08-06T12:12:54;15.80;;;4.93;;
23531;SDS011;11943;52.270;20.978;2023-08-06T12:15:20;6.85;;;4.82;;
23531;SDS011;11943;52.270;20.978;2023-08-06T12:17:47;8.13;;;4.55;;
23531;SDS011;11943;52.270;20.978;2023-08-06T12:20:12;9.95;;;4.90;;
23531;SDS011;11943;52.270;20.978;2023-08-06T12:22:38;6.78;;;4.78;;
23531;SDS011;11943;52.270;20.978;2023-08-06T12:27:36;7.50;;;5.10;;
23531;SDS011;11943;52.270;20.978;2023-08-06T12:30:03;7.15;;;5.03;;
23531;SDS011;11943;52.270;20.978;2023-08-06T12:32:30;8.60;;;5.05;;
23531;SDS011;11943;52.270;20.978;2023-08-06T12:34:56;7.78;;;5.03;;
23531;SDS011;11943;52.270;20.978;2023-08-06T12:37:22;14.07;;;5.53;;
23531;SDS011;11943;52.270;20.978;2023-08-06T12:39:49;5.78;;;5.28;;
23531;SDS011;11943;52.270;20.978;2023-08-06T12:42:14;6.47;;;5.30;;
23531;SDS011;11943;52.270;20.978;2023-08-06T12:44:40;11.02;;;5.85;;
23531;SDS011;11943;52.270;20.978;2023-08-06T12:47:06;11.88;;;5.75;;
23531;SDS011;11943;52.270;20.978;2023-08-06T12:49:32;7.82;;;5.03;;
23531;SDS011;11943;52.270;20.978;2023-08-06T12:51:58;9.15;;;5.72;;
23531;SDS011;11943;52.270;20.978;2023-08-06T12:54:27;10.25;;;5.68;;
23531;SDS011;11943;52.270;20.978;2023-08-06T12:56:53;8.45;;;5.53;;
23531;SDS011;11943;52.270;20.978;2023-08-06T12:59:19;13.93;;;5.97;;
23531;SDS011;11943;52.270;20.978;2023-08-06T13:01:45;8.85;;;5.95;;
23531;SDS011;11943;52.270;20.978;2023-08-06T13:04:11;21.92;;;6.80;;
23531;SDS011;11943;52.270;20.978;2023-08-06T13:06:37;6.47;;;5.47;;
23531;SDS011;11943;52.270;20.978;2023-08-06T13:09:04;9.55;;;5.75;;
23531;SDS011;11943;52.270;20.978;2023-08-06T13:11:37;8.27;;;5.40;;
23531;SDS011;11943;52.270;20.978;2023-08-06T13:14:05;6.40;;;5.05;;
23531;SDS011;11943;52.270;20.978;2023-08-06T13:16:33;10.10;;;5.18;;
23531;SDS011;11943;52.270;20.978;2023-08-06T13:18:59;12.77;;;5.80;;
23531;SDS011;11943;52.270;20.978;2023-08-06T13:21:30;7.55;;;5.60;;
23531;SDS011;11943;52.270;20.978;2023-08-06T13:23:58;13.52;;;5.75;;
23531;SDS011;11943;52.270;20.978;2023-08-06T13:26:23;10.10;;;5.20;;
23531;SDS011;11943;52.270;20.978;2023-08-06T13:28:49;8.00;;;5.43;;
23531;SDS011;11943;52.270;20.978;2023-08-06T13:31:15;6.35;;;4.60;;
23531;SDS011;11943;52.270;20.978;2023-08-06T13:33:41;5.40;;;4.90;;
23531;SDS011;11943;52.270;20.978;2023-08-06T13:36:07;6.43;;;4.47;;
23531;SDS011;11943;52.270;20.978;2023-08-06T13:38:32;5.80;;;5.22;;
23531;SDS011;11943;52.270;20.978;2023-08-06T13:40:58;6.35;;;5.10;;
23531;SDS011;11943;52.270;20.978;2023-08-06T13:43:24;8.38;;;4.88;;
23531;SDS011;11943;52.270;20.978;2023-08-06T13:45:49;7.53;;;4.63;;
23531;SDS011;11943;52.270;20.978;2023-08-06T13:48:15;7.65;;;4.57;;
23531;SDS011;11943;52.270;20.978;2023-08-06T13:50:41;6.72;;;4.53;;
23531;SDS011;11943;52.270;20.978;2023-08-06T13:53:06;7.40;;;4.13;;
23531;SDS011;11943;52.270;20.978;2023-08-06T13:55:32;7.03;;;4.82;;
23531;SDS011;11943;52.270;20.978;2023-08-06T13:57:58;5.80;;;4.45;;
23531;SDS011;11943;52.270;20.978;2023-08-06T14:00:23;7.43;;;4.30;;
23531;SDS011;11943;52.270;20.978;2023-08-06T14:02:49;5.38;;;4.30;;
23531;SDS011;11943;52.270;20.978;2023-08-06T14:05:14;7.32;;;4.65;;
23531;SDS011;11943;52.270;20.978;2023-08-06T14:07:40;7.35;;;4.00;;
23531;SDS011;11943;52.270;20.978;2023-08-06T14:10:06;4.68;;;3.90;;
23531;SDS011;11943;52.270;20.978;2023-08-06T14:12:34;4.78;;;4.35;;
23531;SDS011;11943;52.270;20.978;2023-08-06T14:14:59;5.75;;;5.18;;
23531;SDS011;11943;52.270;20.978;2023-08-06T14:17:25;8.63;;;4.40;;
23531;SDS011;11943;52.270;20.978;2023-08-06T14:19:51;8.43;;;4.43;;
23531;SDS011;11943;52.270;20.978;2023-08-06T14:22:16;4.82;;;4.32;;
23531;SDS011;11943;52.270;20.978;2023-08-06T14:24:42;7.15;;;4.13;;
23531;SDS011;11943;52.270;20.978;2023-08-06T14:27:07;7.78;;;4.22;;
23531;SDS011;11943;52.270;20.978;2023-08-06T14:29:33;5.90;;;4.30;;
23531;SDS011;11943;52.270;20.978;2023-08-06T14:31:59;6.82;;;4.25;;
23531;SDS011;11943;52.270;20.978;2023-08-06T14:34:24;5.72;;;4.50;;
23531;SDS011;11943;52.270;20.978;2023-08-06T14:36:50;10.02;;;3.80;;
23531;SDS011;11943;52.270;20.978;2023-08-06T14:39:15;5.28;;;3.35;;
23531;SDS011;11943;52.270;20.978;2023-08-06T14:41:41;5.50;;;3.50;;